Time;durP1;ratioP1;P1;durP2;ratioP2;P2;SDS_P1;SDS_P2;PMS_P1;PMS_P2;Temp;Humidity;BMP_temperature;BMP_pressure;BME280_temperature;BME280_humidity;BME280_pressure;Samples;Min_cycle;Max_cycle;Signal;HPM_P1;HPM_P2
2021/12/05 00:23:47;;;;;;;42.97;14.80;;;4.70;99.90;;;;;;5013355;28;20103;-82
2021/12/05 00:26:18;;;;;;;43.58;14.07;;;4.90;99.90;;;;;;4998146;28;20083;-79
2021/12/05 00:50:58;;;;;;;33.25;10.48;;;4.20;99.90;;;;;;4927481;29;20035;-83
2021/12/05 01:01:50;;;;;;;24.30;8.35;;;4.90;99.90;;;;;;4932880;29;20082;-84
2021/12/05 01:13:13;;;;;;;19.92;7.38;;;4.90;99.90;;;;;;4915633;29;20476;-84
2021/12/05 01:15:32;;;;;;;22.33;8.00;;;4.10;99.90;;;;;;4915470;29;20091;-86
2021/12/05 01:18:14;;;;;;;18.30;7.25;;;4.90;99.90;;;;;;4900396;29;20035;-83
2021/12/05 01:20:45;;;;;;;17.30;7.15;;;4.20;99.90;;;;;;4922121;29;20039;-82
2021/12/05 01:23:27;;;;;;;16.52;6.90;;;4.70;99.90;;;;;;4929270;29;20039;-81
2021/12/05 01:26:08;;;;;;;18.50;6.95;;;4.70;99.90;;;;;;4939928;29;20083;-83
2021/12/05 02:00:09;;;;;;;20.77;7.85;;;4.10;99.90;;;;;;5028107;28;20152;-81
2021/12/05 02:07:37;;;;;;;25.52;8.82;;;4.10;99.90;;;;;;4988460;28;20040;-81
2021/12/05 02:08:49;;;;;;;20.80;9.02;;;4.00;99.90;;;;;;5027216;28;20041;-81
2021/12/05 02:11:47;;;;;;;21.13;8.85;;;4.00;99.90;;;;;;5010834;28;20124;-85
2021/12/05 02:41:09;;;;;;;19.85;8.77;;;4.80;99.90;;;;;;5029465;28;20125;-83
2021/12/05 02:43:44;;;;;;;22.60;9.25;;;4.30;99.90;;;;;;4995095;28;20084;-83
2021/12/05 02:46:13;;;;;;;19.00;9.07;;;4.00;99.90;;;;;;5009297;28;20083;-82
2021/12/05 02:48:39;;;;;;;21.52;9.00;;;4.10;99.90;;;;;;5028057;28;20741;-83
2021/12/05 02:51:29;;;;;;;27.40;9.07;;;4.40;99.90;;;;;;5012091;28;20495;-82
2021/12/05 02:54:12;;;;;;;21.95;8.95;;;4.00;99.90;;;;;;4995820;28;20072;-85
2021/12/05 02:56:43;;;;;;;18.70;8.23;;;4.00;99.90;;;;;;4995245;28;20038;-83
2021/12/05 02:59:21;;;;;;;25.30;9.65;;;4.00;99.90;;;;;;4985689;28;20116;-85
2021/12/05 03:01:51;;;;;;;20.58;8.70;;;4.50;99.90;;;;;;5002746;28;20049;-81
2021/12/05 03:04:17;;;;;;;21.58;9.23;;;4.10;99.90;;;;;;4997425;28;20435;-83
2021/12/05 03:06:52;;;;;;;27.77;8.65;;;4.80;99.90;;;;;;5031152;28;20040;-83
2021/12/05 03:09:19;;;;;;;20.25;8.65;;;4.60;99.90;;;;;;4988346;28;20128;-80
2021/12/05 03:11:46;;;;;;;19.65;8.43;;;4.10;99.90;;;;;;4994810;28;20064;-81
2021/12/05 03:14:12;;;;;;;23.10;8.35;;;4.10;99.90;;;;;;5030794;28;20033;-80
2021/12/05 03:16:41;;;;;;;21.08;8.60;;;4.60;99.90;;;;;;5031182;28;20449;-82
2021/12/05 03:19:09;;;;;;;22.65;9.25;;;4.00;99.90;;;;;;4996729;28;20045;-83
2021/12/05 03:21:37;;;;;;;23.85;8.88;;;4.90;99.90;;;;;;4994201;28;20658;-82
2021/12/05 03:24:03;;;;;;;29.27;8.93;;;4.50;99.90;;;;;;5023983;28;20041;-79
2021/12/05 03:26:33;;;;;;;23.98;8.63;;;4.10;99.90;;;;;;4987243;28;20042;-83
2021/12/05 03:29:00;;;;;;;21.40;9.18;;;4.10;99.90;;;;;;4976531;28;20084;-81
2021/12/05 03:31:28;;;;;;;27.60;9.18;;;4.10;99.90;;;;;;4984955;28;20091;-83
2021/12/05 03:33:55;;;;;;;25.58;9.13;;;4.10;99.90;;;;;;4986742;28;20041;-82
2021/12/05 03:36:22;;;;;;;20.38;9.55;;;4.80;99.90;;;;;;5005384;28;20131;-79
2021/12/05 03:38:48;;;;;;;22.05;9.10;;;4.00;99.90;;;;;;4997417;28;20464;-82
2021/12/05 03:41:15;;;;;;;31.08;9.55;;;4.00;99.90;;;;;;5000241;28;20190;-80
2021/12/05 03:43:48;;;;;;;26.13;9.75;;;4.00;99.90;;;;;;5032782;28;20037;-83
2021/12/05 03:46:15;;;;;;;22.58;9.20;;;4.40;99.90;;;;;;5034676;28;20315;-83
2021/12/05 03:48:46;;;;;;;26.73;10.13;;;4.50;99.90;;;;;;5000447;28;20049;-81
2021/12/05 03:51:14;;;;;;;25.15;10.45;;;4.00;99.90;;;;;;5015913;28;20122;-80
2021/12/05 03:53:41;;;;;;;26.98;10.60;;;3.90;99.90;;;;;;4998564;28;20045;-80
2021/12/05 03:56:08;;;;;;;26.13;10.65;;;4.70;99.90;;;;;;4999371;28;20132;-81
2021/12/05 03:58:36;;;;;;;33.25;10.95;;;4.00;99.90;;;;;;5017062;28;20168;-81
2021/12/05 04:01:03;;;;;;;35.17;10.93;;;4.70;99.90;;;;;;4999943;28;20477;-82
2021/12/05 04:03:33;;;;;;;28.88;10.13;;;3.90;99.90;;;;;;5033555;28;20034;-81
2021/12/05 04:05:59;;;;;;;25.75;10.90;;;4.00;99.90;;;;;;5015830;28;20527;-85
2021/12/05 04:08:28;;;;;;;31.20;11.60;;;4.80;99.90;;;;;;4993291;28;20432;-82
2021/12/05 04:10:58;;;;;;;34.20;11.10;;;3.90;99.90;;;;;;5006809;28;20099;-83
2021/12/05 04:13:25;;;;;;;29.60;11.75;;;3.90;99.90;;;;;;5034360;28;20061;-84
2021/12/05 04:15:53;;;;;;;30.42;11.00;;;3.80;99.90;;;;;;5015247;28;20052;-83
2021/12/05 04:18:19;;;;;;;35.13;12.13;;;4.20;99.90;;;;;;5016179;28;20045;-83
2021/12/05 04:20:47;;;;;;;28.30;11.55;;;4.40;99.90;;;;;;5017157;28;20049;-82
2021/12/05 04:23:13;;;;;;;29.45;11.63;;;3.70;99.90;;;;;;5033341;28;20037;-84
2021/12/05 04:25:40;;;;;;;33.25;11.18;;;3.70;99.90;;;;;;5008695;28;20791;-82
2021/12/05 04:28:07;;;;;;;31.10;12.73;;;3.70;99.90;;;;;;4995714;28;20037;-83
2021/12/05 04:30:33;;;;;;;30.73;12.68;;;3.70;99.90;;;;;;4990475;28;20095;-82
2021/12/05 04:32:59;;;;;;;35.80;12.38;;;4.50;99.90;;;;;;4999361;28;20389;-85
2021/12/05 04:35:25;;;;;;;27.05;12.25;;;4.40;99.90;;;;;;4998746;28;20048;-83
2021/12/05 04:37:51;;;;;;;33.03;13.18;;;4.00;99.90;;;;;;4998362;28;20041;-83
2021/12/05 04:40:17;;;;;;;32.83;13.18;;;3.60;99.90;;;;;;4995730;28;20048;-83
2021/12/05 04:42:43;;;;;;;31.75;13.20;;;4.20;99.90;;;;;;4984955;28;20313;-84
2021/12/05 04:45:15;;;;;;;32.20;14.15;;;4.30;99.90;;;;;;5015464;28;20046;-83
2021/12/05 04:47:41;;;;;;;36.85;12.98;;;3.60;99.90;;;;;;4998704;28;20084;-84
2021/12/05 04:50:08;;;;;;;35.03;14.57;;;3.50;99.90;;;;;;4997328;28;20049;-81
2021/12/05 04:52:34;;;;;;;34.38;14.13;;;3.50;99.90;;;;;;4990030;28;20042;-84
2021/12/05 04:55:01;;;;;;;40.72;14.07;;;3.80;99.90;;;;;;5006741;28;20072;-85
2021/12/05 04:57:27;;;;;;;45.22;13.68;;;3.60;99.90;;;;;;4998087;28;20053;-81
2021/12/05 04:59:53;;;;;;;40.97;14.88;;;3.90;99.90;;;;;;5017319;28;20077;-82
2021/12/05 05:02:20;;;;;;;46.45;14.43;;;4.40;99.90;;;;;;4995096;28;20155;-81
2021/12/05 05:04:48;;;;;;;40.53;15.20;;;3.60;99.90;;;;;;5015190;28;20092;-84
2021/12/05 05:07:24;;;;;;;40.80;15.60;;;4.30;99.90;;;;;;5015139;28;20115;-82
2021/12/05 05:09:52;;;;;;;44.13;15.05;;;3.60;99.90;;;;;;4997303;28;20092;-83
2021/12/05 05:12:18;;;;;;;41.88;14.77;;;3.70;99.90;;;;;;4999037;28;20049;-80
2021/12/05 05:14:45;;;;;;;35.28;14.07;;;3.60;99.90;;;;;;4998551;28;20046;-84
2021/12/05 05:17:10;;;;;;;30.50;13.55;;;3.70;99.90;;;;;;5032791;28;20041;-82
2021/12/05 05:19:40;;;;;;;37.83;14.45;;;3.60;99.90;;;;;;4998591;28;20045;-82
2021/12/05 05:41:35;;;;;;;43.72;14.18;;;3.70;99.90;;;;;;4931707;29;20194;-80
2021/12/05 05:46:20;;;;;;;34.28;12.60;;;3.70;99.90;;;;;;4917206;29;20090;-83
2021/12/05 05:48:56;;;;;;;37.80;13.75;;;3.70;99.90;;;;;;4901408;29;20051;-83
2021/12/05 05:51:22;;;;;;;30.25;13.35;;;3.70;99.90;;;;;;4929001;29;20048;-83
2021/12/05 05:53:48;;;;;;;38.95;12.70;;;4.50;99.90;;;;;;4913741;29;20190;-81
2021/12/05 05:56:23;;;;;;;34.35;13.30;;;3.60;99.90;;;;;;4889076;29;20130;-85
2021/12/05 05:58:54;;;;;;;30.98;12.60;;;4.30;99.90;;;;;;4907184;29;20043;-79
2021/12/05 06:01:41;;;;;;;31.38;11.93;;;3.70;99.90;;;;;;4916505;29;20059;-79
2021/12/05 06:04:07;;;;;;;35.72;11.55;;;3.60;99.90;;;;;;4910457;29;20546;-83
2021/12/05 06:06:35;;;;;;;27.45;10.82;;;4.30;99.90;;;;;;4938315;28;20065;-79
2021/12/05 06:09:02;;;;;;;37.50;11.82;;;3.60;99.90;;;;;;4994315;28;20102;-83
2021/12/05 06:11:28;;;;;;;37.20;11.85;;;3.60;99.90;;;;;;4994331;28;20053;-82
2021/12/05 06:13:54;;;;;;;30.75;10.98;;;3.70;99.90;;;;;;5031669;28;20042;-80
2021/12/05 06:16:20;;;;;;;25.05;10.63;;;4.20;99.90;;;;;;4997465;28;20091;-83
2021/12/05 06:18:47;;;;;;;33.47;11.00;;;4.30;99.90;;;;;;5030088;28;20037;-84
2021/12/05 06:21:14;;;;;;;25.85;10.82;;;4.20;99.90;;;;;;4997891;28;20040;-82
2021/12/05 06:24:08;;;;;;;37.58;11.30;;;3.90;99.90;;;;;;5031209;28;20036;-81
2021/12/05 06:26:35;;;;;;;35.25;11.57;;;3.50;99.90;;;;;;5014448;28;20102;-81
2021/12/05 06:29:18;;;;;;;31.00;11.10;;;4.20;99.90;;;;;;5012670;28;20046;-80
2021/12/05 06:32:30;;;;;;;35.90;10.43;;;3.50;99.90;;;;;;5013646;28;20072;-81
2021/12/05 06:40:20;;;;;;;27.80;9.60;;;4.00;99.90;;;;;;5011364;28;20134;-80
2021/12/05 06:46:03;;;;;;;34.70;9.77;;;3.90;99.90;;;;;;4935180;29;20113;-81
2021/12/05 06:48:30;;;;;;;30.60;10.18;;;4.00;99.90;;;;;;4934888;29;20122;-80
2021/12/05 06:50:55;;;;;;;23.45;8.48;;;3.30;99.90;;;;;;4951387;29;20078;-83
2021/12/05 06:53:21;;;;;;;26.60;9.15;;;3.30;99.90;;;;;;4934111;29;20416;-82
2021/12/05 06:55:47;;;;;;;28.58;8.63;;;3.30;99.90;;;;;;4935283;29;20110;-83
2021/12/05 06:58:13;;;;;;;31.48;8.25;;;3.70;99.90;;;;;;4935217;29;20046;-81
2021/12/05 07:00:38;;;;;;;33.47;9.25;;;3.20;99.90;;;;;;4934655;29;20036;-80
2021/12/05 07:03:07;;;;;;;30.70;9.00;;;3.20;99.90;;;;;;4950683;29;20187;-83
2021/12/05 07:08:06;;;;;;;24.15;8.38;;;3.20;99.90;;;;;;4944957;29;20102;-83
2021/12/05 07:10:38;;;;;;;33.65;8.60;;;4.00;99.90;;;;;;4951118;29;20082;-83
2021/12/05 07:26:15;;;;;;;31.55;8.90;;;3.20;99.90;;;;;;5034599;28;20080;-85
2021/12/05 07:42:24;;;;;;;25.73;9.25;;;3.20;99.90;;;;;;5033877;28;20041;-80
2021/12/05 07:44:55;;;;;;;26.65;9.30;;;3.30;99.90;;;;;;4999994;28;20033;-81
2021/12/05 07:47:24;;;;;;;32.13;9.05;;;3.30;99.90;;;;;;4996663;28;20064;-84
2021/12/05 07:49:53;;;;;;;34.72;9.15;;;3.30;99.90;;;;;;5012878;28;20434;-84
2021/12/05 07:52:22;;;;;;;30.85;8.68;;;3.90;99.90;;;;;;5017567;28;20075;-80
2021/12/05 07:54:56;;;;;;;11.88;3.58;;;3.30;99.90;;;;;;5016723;28;20084;-83
2021/12/05 07:57:35;;;;;;;34.10;11.13;;;3.60;99.90;;;;;;5016455;28;20365;-76
2021/12/05 08:16:12;;;;;;;26.08;9.02;;;3.50;99.90;;;;;;5018916;28;20046;-81
2021/12/05 08:18:39;;;;;;;31.77;9.05;;;3.50;99.90;;;;;;4998139;28;20377;-78
2021/12/05 08:21:07;;;;;;;24.20;9.18;;;3.80;99.90;;;;;;4995525;28;20060;-82
2021/12/05 08:23:34;;;;;;;25.10;9.93;;;3.60;99.90;;;;;;4995296;28;20488;-78
2021/12/05 08:26:10;;;;;;;29.45;10.40;;;3.80;99.90;;;;;;5013009;28;20037;-82
2021/12/05 08:31:56;;;;;;;24.55;9.52;;;3.80;99.90;;;;;;5013802;28;20080;-79
2021/12/05 09:21:53;;;;;;;25.55;12.02;;;4.50;99.90;;;;;;5003573;28;20072;-82
2021/12/05 09:40:17;;;;;;;30.13;12.17;;;4.40;99.90;;;;;;5012941;28;20136;-78
2021/12/05 09:51:21;;;;;;;29.33;12.40;;;4.30;99.90;;;;;;5013485;28;20543;-77
2021/12/05 10:08:15;;;;;;;34.92;12.85;;;4.10;99.90;;;;;;4948613;28;20043;-80
2021/12/05 10:10:57;;;;;;;28.02;12.07;;;4.10;99.90;;;;;;4961827;28;20059;-80
2021/12/05 10:13:39;;;;;;;28.23;12.43;;;4.10;99.90;;;;;;4952064;28;20125;-77
2021/12/05 10:16:22;;;;;;;21.77;12.35;;;4.10;99.90;;;;;;4957728;28;20054;-76
2021/12/05 10:35:43;;;;;;;22.83;11.98;;;4.20;99.90;;;;;;4968529;28;20043;-78
2021/12/05 10:38:17;;;;;;;24.83;12.10;;;4.20;99.90;;;;;;4964924;28;20043;-79
2021/12/05 10:41:45;;;;;;;;;;;;;;;;;;;;;
2021/12/05 10:51:57;;;;;;;26.02;12.50;;;3.90;99.90;;;;;;4840851;29;20055;-78
2021/12/05 10:54:26;;;;;;;27.23;12.63;;;5.00;99.90;;;;;;4826857;29;20172;-80
2021/12/05 10:56:56;;;;;;;27.98;12.55;;;4.30;99.90;;;;;;4846435;29;20066;-79
2021/12/05 10:59:36;;;;;;;25.88;12.02;;;4.30;99.90;;;;;;4824959;29;20049;-79
2021/12/05 11:02:34;;;;;;;28.08;12.75;;;4.40;99.90;;;;;;4823972;29;20049;-83
2021/12/05 11:05:16;;;;;;;24.85;11.73;;;4.30;99.90;;;;;;4826984;29;20064;-82
2021/12/05 11:07:42;;;;;;;26.73;12.00;;;4.30;99.90;;;;;;4806214;29;20173;-80
2021/12/05 11:10:10;;;;;;;29.42;12.80;;;5.10;99.90;;;;;;4809218;29;20214;-85
2021/12/05 11:12:37;;;;;;;26.98;11.98;;;4.70;99.90;;;;;;4806160;29;20144;-84
2021/12/05 11:15:08;;;;;;;30.23;12.77;;;5.00;99.90;;;;;;4815134;29;20062;-82
2021/12/05 11:17:40;;;;;;;26.00;12.23;;;4.40;99.90;;;;;;4812896;29;20076;-82
2021/12/05 11:20:21;;;;;;;26.88;11.80;;;4.40;99.90;;;;;;4839595;29;20048;-81
2021/12/05 11:22:50;;;;;;;25.42;12.30;;;4.90;99.90;;;;;;4892844;29;20789;-82
2021/12/05 11:25:35;;;;;;;27.88;12.43;;;4.90;99.90;;;;;;4924079;29;20062;-81
2021/12/05 11:28:04;;;;;;;;;;;4.50;99.90;;;;;;4937379;28;20096;-82
2021/12/05 11:30:33;;;;;;;21.45;11.15;;;5.20;99.90;;;;;;5008927;28;19925;-82
2021/12/05 11:33:19;;;;;;;33.83;11.75;;;5.20;99.90;;;;;;4983133;28;20058;-82
2021/12/05 11:36:04;;;;;;;27.88;11.50;;;4.50;99.90;;;;;;4991009;28;20050;-82
2021/12/05 11:38:34;;;;;;;19.40;10.52;;;4.60;99.90;;;;;;4974323;28;20049;-82
2021/12/05 11:41:14;;;;;;;19.35;10.13;;;5.50;99.90;;;;;;4992021;28;20050;-83
2021/12/05 11:44:03;;;;;;;25.52;11.38;;;4.60;99.90;;;;;;4976063;28;20045;-82
2021/12/05 11:50:08;;;;;;;27.00;11.13;;;4.70;99.90;;;;;;4971882;28;20057;-79
2021/12/05 11:52:39;;;;;;;25.35;11.30;;;4.70;99.90;;;;;;4971123;28;20058;-80
2021/12/05 11:55:18;;;;;;;26.75;11.15;;;4.70;99.90;;;;;;4982887;28;20042;-79
2021/12/05 11:57:44;;;;;;;21.77;10.27;;;4.80;99.90;;;;;;4962842;28;20434;-79
2021/12/05 12:00:15;;;;;;;26.38;10.70;;;4.80;99.90;;;;;;4976932;28;20058;-79
2021/12/05 12:02:42;;;;;;;25.20;11.25;;;4.90;99.90;;;;;;4965198;28;20051;-77
2021/12/05 12:05:18;;;;;;;21.88;11.00;;;5.00;99.90;;;;;;4981349;28;20084;-78
2021/12/05 12:08:07;;;;;;;29.63;11.95;;;5.00;99.90;;;;;;4998618;28;20061;-78
2021/12/05 12:10:42;;;;;;;28.08;11.50;;;5.10;99.90;;;;;;4993074;28;20046;-82
2021/12/05 12:13:12;;;;;;;29.45;10.90;;;5.10;99.90;;;;;;4965813;28;20082;-82
2021/12/05 12:16:12;;;;;;;27.23;11.65;;;5.10;99.90;;;;;;4983344;28;20046;-84
2021/12/05 12:18:58;;;;;;;25.02;11.88;;;5.10;99.90;;;;;;4959797;28;20069;-79
2021/12/05 12:21:27;;;;;;;25.95;11.23;;;5.70;99.90;;;;;;4970033;28;20054;-81
2021/12/05 12:23:56;;;;;;;28.15;12.18;;;5.20;99.90;;;;;;4967893;28;20125;-81
2021/12/05 12:26:23;;;;;;;27.52;10.60;;;5.70;99.90;;;;;;4983284;28;20078;-81
2021/12/05 12:28:49;;;;;;;29.27;11.35;;;5.20;99.90;;;;;;4990420;28;20046;-80
2021/12/05 12:31:25;;;;;;;33.17;11.77;;;5.30;99.90;;;;;;4993318;28;20045;-81
2021/12/05 12:33:57;;;;;;;22.88;10.75;;;5.30;99.90;;;;;;5010739;28;20040;-80
2021/12/05 12:37:00;;;;;;;23.38;11.45;;;5.20;99.90;;;;;;4974205;28;20435;-83
2021/12/05 12:44:31;;;;;;;;;;;;;;;;;;;;;
2021/12/05 12:55:15;;;;;;;23.05;9.70;;;5.30;99.90;;;;;;4853207;29;20056;-83
2021/12/05 12:58:14;;;;;;;;;;;;;;;;;;;;;
2021/12/05 13:15:20;;;;;;;18.08;9.32;;;5.40;99.90;;;;;;5007910;28;20044;-82
2021/12/05 13:17:48;;;;;;;18.20;10.23;;;5.40;99.90;;;;;;4984585;28;20110;-81
2021/12/05 13:20:40;;;;;;;28.63;9.60;;;5.40;99.90;;;;;;4967761;28;20050;-80
2021/12/05 13:23:08;;;;;;;22.15;9.40;;;4.80;99.90;;;;;;4976933;28;20047;-81
2021/12/05 13:26:01;;;;;;;18.58;9.27;;;5.50;99.90;;;;;;4986690;28;20097;-81
2021/12/05 13:28:30;;;;;;;18.33;8.90;;;5.50;99.90;;;;;;4954327;28;20054;-81
2021/12/05 13:30:57;;;;;;;19.48;8.82;;;5.40;99.90;;;;;;4966754;28;20096;-81
2021/12/05 13:33:43;;;;;;;24.60;9.82;;;5.50;99.90;;;;;;4979728;28;20061;-81
2021/12/05 13:36:30;;;;;;;19.90;8.55;;;5.50;99.90;;;;;;4964818;28;20495;-81
2021/12/05 13:38:59;;;;;;;15.75;8.43;;;5.50;99.90;;;;;;4952059;28;20129;-83
2021/12/05 13:41:36;;;;;;;19.20;9.38;;;5.90;99.90;;;;;;4946307;28;20047;-82
2021/12/05 13:44:02;;;;;;;23.10;9.43;;;6.10;99.90;;;;;;4961433;28;20046;-81
2021/12/05 13:47:39;;;;;;;;;;;;;;;;;;;;;
2021/12/05 13:52:59;;;;;;;19.10;9.15;;;5.50;99.90;;;;;;4917377;28;20077;-83
2021/12/05 13:55:36;;;;;;;20.13;8.82;;;5.50;99.90;;;;;;4917639;29;20063;-84
2021/12/05 13:58:34;;;;;;;20.52;8.52;;;5.50;99.90;;;;;;4898704;29;20063;-83
2021/12/05 14:01:22;;;;;;;17.63;8.32;;;5.50;99.90;;;;;;4942473;29;20124;-82
2021/12/05 14:04:38;;;;;;;16.83;9.05;;;5.50;99.90;;;;;;4924741;29;20040;-81
2021/12/05 14:07:05;;;;;;;;;;;5.40;99.90;;;;;;4904604;29;20091;-85
2021/12/05 14:09:54;;;;;;;12.60;7.03;;;5.30;99.90;;;;;;4914046;29;19926;-89
2021/12/05 14:12:44;;;;;;;23.40;8.05;;;5.30;99.90;;;;;;4899951;29;20553;-83
2021/12/05 14:15:10;;;;;;;21.50;8.45;;;5.40;99.90;;;;;;4912925;29;20121;-86
2021/12/05 14:17:40;;;;;;;20.23;8.52;;;6.00;99.90;;;;;;4924675;29;20103;-87
2021/12/05 14:20:13;;;;;;;16.30;8.65;;;5.70;99.90;;;;;;4892993;29;20047;-84
2021/12/05 14:26:53;;;;;;;18.17;8.43;;;5.20;99.90;;;;;;4900578;29;20231;-84
2021/12/05 14:29:55;;;;;;;18.83;8.38;;;5.10;99.90;;;;;;4894255;29;20977;-84
2021/12/05 14:32:42;;;;;;;19.70;8.63;;;5.40;99.90;;;;;;4879484;29;20071;-80
2021/12/05 14:35:13;;;;;;;19.60;9.35;;;5.90;99.90;;;;;;4880060;29;20339;-81
2021/12/05 14:38:00;;;;;;;13.95;9.20;;;5.10;99.90;;;;;;4879819;29;20075;-81
2021/12/05 14:40:44;;;;;;;20.67;9.48;;;5.30;99.90;;;;;;4893653;29;20596;-81
2021/12/05 14:43:24;;;;;;;21.02;10.13;;;5.10;99.90;;;;;;4896904;29;20050;-81
2021/12/05 14:45:50;;;;;;;19.63;10.02;;;5.10;99.90;;;;;;4880274;29;20044;-81
2021/12/05 14:48:17;;;;;;;23.42;11.10;;;5.60;99.90;;;;;;4895419;29;20043;-80
2021/12/05 14:50:44;;;;;;;28.73;10.75;;;5.20;99.90;;;;;;4910619;29;20056;-79
2021/12/05 14:53:13;;;;;;;24.58;11.43;;;5.20;99.90;;;;;;4890693;29;20499;-80
2021/12/05 14:55:39;;;;;;;24.63;11.70;;;5.20;99.90;;;;;;4912675;29;20056;-81
2021/12/05 14:58:14;;;;;;;24.10;11.55;;;5.10;99.90;;;;;;4895051;29;20434;-82
2021/12/05 15:00:42;;;;;;;32.60;12.35;;;5.10;99.90;;;;;;4895838;29;20109;-83
2021/12/05 15:03:13;;;;;;;22.42;12.32;;;5.10;99.90;;;;;;4923506;28;20090;-82
2021/12/05 15:05:40;;;;;;;31.42;13.65;;;5.00;99.90;;;;;;4945644;28;20102;-82
2021/12/05 15:08:17;;;;;;;21.25;13.48;;;5.00;99.90;;;;;;4989722;28;20462;-83
2021/12/05 15:10:48;;;;;;;27.90;13.57;;;5.00;99.90;;;;;;4975330;28;20045;-82
2021/12/05 15:13:17;;;;;;;28.35;12.60;;;5.30;99.90;;;;;;4978811;28;20370;-80
2021/12/05 15:15:44;;;;;;;28.65;14.43;;;4.90;99.90;;;;;;4957298;28;20047;-81
2021/12/05 15:18:53;;;;;;;26.95;13.85;;;4.90;99.90;;;;;;4954008;28;20495;-82
2021/12/05 15:22:24;;;;;;;31.65;13.32;;;4.90;99.90;;;;;;4958469;28;20043;-83
2021/12/05 15:29:02;;;;;;;23.63;12.98;;;4.80;99.90;;;;;;4818751;29;20077;-84
2021/12/05 15:31:44;;;;;;;27.80;12.73;;;4.80;99.90;;;;;;4805088;29;20054;-83
2021/12/05 15:34:24;;;;;;;26.98;13.05;;;4.80;99.90;;;;;;4800738;29;20419;-80
2021/12/05 15:36:54;;;;;;;22.23;11.23;;;4.80;99.90;;;;;;4803624;29;20086;-82
2021/12/05 15:39:31;;;;;;;28.73;13.57;;;4.80;99.90;;;;;;4802806;29;20086;-82
2021/12/05 15:41:58;;;;;;;31.70;13.98;;;5.50;99.90;;;;;;4819959;29;20054;-82
2021/12/05 15:44:54;;;;;;;30.70;13.90;;;5.80;99.90;;;;;;4805517;29;20069;-82
2021/12/05 15:47:52;;;;;;;28.05;13.88;;;4.70;99.90;;;;;;4813239;29;20054;-83
2021/12/05 16:01:41;;;;;;;33.83;15.10;;;4.30;99.90;;;;;;4794462;29;20096;-81
2021/12/05 16:04:19;;;;;;;34.28;14.77;;;4.60;99.90;;;;;;4802203;29;20051;-81
2021/12/05 16:07:44;;;;;;;32.30;15.52;;;4.60;99.90;;;;;;4807893;29;20468;-81
2021/12/05 16:10:23;;;;;;;30.05;15.80;;;4.50;99.90;;;;;;4753312;30;20078;-82
2021/12/05 16:13:08;;;;;;;32.08;17.35;;;4.60;99.90;;;;;;4802224;29;20135;-82
2021/12/05 16:30:38;;;;;;;28.27;16.40;;;4.50;99.90;;;;;;4471780;27;19205562;-80
2021/12/05 16:36:57;;;;;;;;;;;;;;;;;;;;;
2021/12/05 16:40:25;;;;;;;38.47;20.58;;;4.40;99.90;;;;;;5054174;28;20043;-82
2021/12/05 16:43:44;;;;;;;42.33;23.05;;;3.80;99.90;;;;;;5122533;27;20085;-83
2021/12/05 16:47:06;;;;;;;48.70;23.23;;;4.40;99.90;;;;;;4950815;28;20055;-81
2021/12/05 16:49:57;;;;;;;42.03;21.35;;;4.40;99.90;;;;;;4980020;28;20096;-87
2021/12/05 16:52:24;;;;;;;40.35;20.20;;;4.40;99.90;;;;;;4949595;28;20054;-87
2021/12/05 17:05:43;;;;;;;45.20;22.92;;;4.30;99.90;;;;;;4971089;28;20518;-85
2021/12/05 17:08:45;;;;;;;45.97;24.80;;;5.30;99.90;;;;;;4947768;28;20487;-90
2021/12/05 17:12:13;;;;;;;;;;;;;;;;;;;;;
2021/12/05 17:14:49;;;;;;;44.65;24.70;;;3.90;99.90;;;;;;4964216;28;20047;-84
2021/12/05 17:21:29;;;;;;;;;;;;;;;;;;;;;
2021/12/05 17:24:00;;;;;;;41.00;23.42;;;4.20;99.90;;;;;;4960645;28;20089;-85
2021/12/05 17:26:46;;;;;;;42.75;23.30;;;4.50;99.90;;;;;;4981208;28;20051;-84
2021/12/05 17:29:49;;;;;;;40.47;23.08;;;4.10;99.90;;;;;;4969568;28;20062;-86
2021/12/05 17:33:06;;;;;;;43.80;25.48;;;4.30;99.90;;;;;;4969230;28;20081;-85
2021/12/05 17:39:47;;;;;;;49.33;23.75;;;4.10;99.90;;;;;;4965834;28;20058;-86
2021/12/05 17:42:18;;;;;;;49.10;23.92;;;4.00;99.90;;;;;;4970646;28;20138;-83
2021/12/05 17:44:45;;;;;;;42.45;23.23;;;4.70;99.90;;;;;;4965770;28;20051;-82
2021/12/05 17:47:27;;;;;;;42.40;23.48;;;4.80;99.90;;;;;;4970623;28;20450;-82
2021/12/05 17:50:07;;;;;;;43.67;23.33;;;4.50;99.90;;;;;;4959905;28;20124;-82
2021/12/05 17:52:37;;;;;;;44.28;23.77;;;3.90;99.90;;;;;;4927918;29;20151;-81
2021/12/05 17:55:31;;;;;;;40.60;23.45;;;4.00;99.90;;;;;;4894191;29;20078;-81
2021/12/05 17:58:18;;;;;;;37.05;21.17;;;3.30;99.90;;;;;;4870914;29;20143;-81
2021/12/05 18:02:35;;;;;;;46.20;23.17;;;4.00;99.90;;;;;;4913253;29;20127;-83
2021/12/05 18:03:51;;;;;;;49.45;24.00;;;3.80;99.90;;;;;;4912622;29;20523;-84
2021/12/05 18:06:19;;;;;;;40.63;21.23;;;4.70;99.90;;;;;;4919176;29;20477;-83
2021/12/05 18:08:47;;;;;;;39.97;22.08;;;4.70;99.90;;;;;;4914366;29;20186;-83
2021/12/05 18:11:34;;;;;;;38.72;20.13;;;4.00;99.90;;;;;;4898508;29;20142;-86
2021/12/05 18:14:15;;;;;;;31.02;16.90;;;3.80;99.90;;;;;;4914013;29;20082;-87
2021/12/05 18:17:02;;;;;;;34.65;19.73;;;3.80;99.90;;;;;;4932597;29;20090;-86
2021/12/05 18:19:28;;;;;;;31.85;20.02;;;4.10;99.90;;;;;;4931414;29;20170;-81
2021/12/05 18:21:54;;;;;;;43.75;21.27;;;4.70;99.90;;;;;;4933275;29;20253;-81
2021/12/05 18:24:55;;;;;;;34.70;21.85;;;4.70;99.90;;;;;;4931556;28;20092;-82
2021/12/05 18:31:16;;;;;;;28.50;17.98;;;3.80;99.90;;;;;;5059353;28;20050;-83
2021/12/05 18:37:10;;;;;;;28.35;16.23;;;4.40;99.90;;;;;;5069597;28;20041;-90
2021/12/05 18:39:41;;;;;;;25.15;15.60;;;4.40;99.90;;;;;;5034076;28;20043;-82
2021/12/05 18:42:09;;;;;;;30.55;18.17;;;3.90;99.90;;;;;;5052406;28;20089;-81
2021/12/05 18:44:39;;;;;;;30.13;18.05;;;4.80;99.90;;;;;;5054879;28;20124;-81
2021/12/05 18:47:06;;;;;;;30.13;17.92;;;3.70;99.90;;;;;;5053163;28;20045;-83
2021/12/05 18:49:32;;;;;;;30.70;19.65;;;4.60;99.90;;;;;;5033950;28;20040;-82
2021/12/05 18:52:00;;;;;;;34.08;20.45;;;4.70;99.90;;;;;;5035882;28;20060;-79
2021/12/05 18:54:29;;;;;;;32.03;19.42;;;4.50;99.90;;;;;;5027136;28;20444;-81
2021/12/05 18:56:58;;;;;;;28.75;19.58;;;3.60;99.90;;;;;;5036220;28;20135;-83
2021/12/05 18:59:24;;;;;;;30.15;19.38;;;3.60;99.90;;;;;;5050246;28;20052;-87
2021/12/05 19:04:42;;;;;;;35.97;21.13;;;4.30;99.90;;;;;;5044620;28;20039;-85
2021/12/05 19:07:19;;;;;;;37.30;22.75;;;3.60;99.90;;;;;;5033889;28;20295;-86
2021/12/05 19:12:16;;;;;;;34.30;22.27;;;4.00;99.90;;;;;;5060346;28;20044;-84
2021/12/05 19:14:45;;;;;;;37.58;21.95;;;3.50;99.90;;;;;;5052993;28;20045;-85
2021/12/05 19:17:27;;;;;;;36.15;21.95;;;4.00;99.90;;;;;;5036017;28;20080;-82
2021/12/05 19:19:57;;;;;;;40.17;25.25;;;3.60;99.90;;;;;;5058712;28;20040;-83
2021/12/05 19:23:09;;;;;;;37.22;23.92;;;3.60;99.90;;;;;;5032160;28;20139;-88
2021/12/05 19:26:11;;;;;;;39.50;24.05;;;3.50;99.90;;;;;;4915182;29;20066;-87
2021/12/05 19:28:42;;;;;;;35.00;23.40;;;2.70;99.90;;;;;;4915725;29;20800;-85
2021/12/05 19:31:08;;;;;;;40.78;24.13;;;4.30;99.90;;;;;;4920735;29;20058;-87
2021/12/05 19:33:34;;;;;;;37.67;24.90;;;4.00;99.90;;;;;;4944225;28;20051;-85
2021/12/05 19:36:00;;;;;;;33.80;20.98;;;4.40;99.90;;;;;;4942775;29;20048;-85
2021/12/05 19:38:27;;;;;;;32.55;21.13;;;4.20;99.90;;;;;;4915791;29;20531;-85
2021/12/05 19:40:57;;;;;;;34.05;23.17;;;4.50;99.90;;;;;;4906192;29;20044;-85
2021/12/05 19:43:27;;;;;;;35.15;23.35;;;4.10;99.90;;;;;;4906275;29;20089;-87
2021/12/05 19:46:38;;;;;;;35.20;21.30;;;4.30;99.90;;;;;;4928830;29;20035;-83
2021/12/05 19:49:08;;;;;;;30.50;19.98;;;3.80;99.90;;;;;;4912139;29;20051;-86
2021/12/05 19:51:36;;;;;;;28.83;19.70;;;3.90;99.90;;;;;;4919752;29;20174;-85
2021/12/05 19:54:07;;;;;;;30.65;21.90;;;3.30;99.90;;;;;;4920775;29;20110;-85
2021/12/05 19:56:42;;;;;;;31.98;21.95;;;4.30;99.90;;;;;;4917471;29;20507;-86
2021/12/05 19:59:09;;;;;;;34.92;22.70;;;3.20;99.90;;;;;;4921437;29;20055;-86
2021/12/05 20:01:36;;;;;;;31.83;22.42;;;3.20;99.90;;;;;;4936016;28;20050;-84
2021/12/05 20:04:04;;;;;;;27.42;19.90;;;3.20;99.90;;;;;;5031787;28;20048;-85
2021/12/05 20:06:30;;;;;;;26.92;18.70;;;3.20;99.90;;;;;;5013341;28;20043;-84
2021/12/05 20:08:56;;;;;;;20.52;15.18;;;4.30;99.90;;;;;;5046348;28;20044;-84
2021/12/05 20:11:23;;;;;;;22.05;15.25;;;3.50;99.90;;;;;;5039350;28;20087;-84
2021/12/05 20:13:58;;;;;;;22.60;16.73;;;3.10;99.90;;;;;;5056135;28;20036;-83
2021/12/05 20:16:37;;;;;;;21.77;16.42;;;3.10;99.90;;;;;;5025220;28;20480;-84
2021/12/05 20:19:04;;;;;;;20.38;15.80;;;2.80;99.90;;;;;;5023409;28;20091;-84
2021/12/05 20:21:40;;;;;;;21.40;14.35;;;3.10;99.90;;;;;;5031438;28;20098;-86
2021/12/05 20:24:07;;;;;;;20.17;14.45;;;3.10;99.90;;;;;;5038791;28;20424;-86
2021/12/05 20:26:34;;;;;;;17.75;13.10;;;2.90;99.90;;;;;;5037178;28;20041;-86